Time;durP1;ratioP1;P1;durP2;ratioP2;P2;SDS_P1;SDS_P2;PMS_P1;PMS_P2;Temp;Humidity;BMP_temperature;BMP_pressure;BME280_temperature;BME280_humidity;BME280_pressure;Samples;Min_cycle;Max_cycle;Signal;HPM_P1;HPM_P2
2023/01/14 00:00:37;;;;;;;9.52;1.90;;;9.20;99.90;;;;;;4972937;28;20118;-89
2023/01/14 00:03:03;;;;;;;10.60;1.90;;;9.10;99.90;;;;;;5007197;28;20100;-87
2023/01/14 00:05:28;;;;;;;9.15;1.63;;;9.20;99.90;;;;;;4992016;28;20041;-87
2023/01/14 00:07:54;;;;;;;11.20;1.70;;;9.20;99.90;;;;;;4998902;28;20021;-86
2023/01/14 00:10:20;;;;;;;10.10;2.05;;;9.20;99.90;;;;;;4992666;28;20068;-88
2023/01/14 00:12:46;;;;;;;11.40;2.00;;;9.10;99.90;;;;;;5006274;28;20349;-86
2023/01/14 00:15:12;;;;;;;12.37;2.10;;;9.10;99.90;;;;;;4984784;28;20024;-87
2023/01/14 00:17:38;;;;;;;11.45;1.83;;;9.20;99.90;;;;;;5003374;28;20021;-86
2023/01/14 00:20:04;;;;;;;9.00;1.77;;;9.20;99.90;;;;;;4995643;28;20033;-86
2023/01/14 00:22:30;;;;;;;10.02;1.58;;;9.20;99.90;;;;;;4981048;28;20159;-88
2023/01/14 00:24:56;;;;;;;6.93;1.60;;;9.10;99.90;;;;;;4989045;28;20305;-87
2023/01/14 00:27:21;;;;;;;9.68;1.60;;;9.10;99.90;;;;;;4990483;28;20059;-87
2023/01/14 00:29:47;;;;;;;8.87;1.60;;;9.10;99.90;;;;;;4981448;28;21097;-87
2023/01/14 00:32:13;;;;;;;10.13;1.77;;;9.10;99.90;;;;;;4991878;28;20454;-86
2023/01/14 00:34:39;;;;;;;10.13;1.73;;;9.10;99.90;;;;;;4988229;28;20561;-87
2023/01/14 00:37:07;;;;;;;11.35;1.92;;;9.10;99.90;;;;;;5008476;28;20021;-87
2023/01/14 00:39:33;;;;;;;10.27;2.03;;;9.10;99.90;;;;;;4964174;28;20113;-85
2023/01/14 00:41:58;;;;;;;8.60;1.30;;;9.10;99.90;;;;;;5009292;28;20223;-86
2023/01/14 00:44:24;;;;;;;9.80;1.90;;;9.10;99.90;;;;;;5026009;28;20021;-86
2023/01/14 00:46:51;;;;;;;5.47;1.20;;;9.10;99.90;;;;;;4991188;28;20937;-87
2023/01/14 00:49:19;;;;;;;7.35;1.52;;;9.10;99.90;;;;;;5010484;28;20054;-86
2023/01/14 00:51:46;;;;;;;7.75;1.63;;;9.10;99.90;;;;;;4990687;28;20024;-86
2023/01/14 00:54:12;;;;;;;7.27;1.53;;;9.10;99.90;;;;;;4993317;28;20052;-87
2023/01/14 00:56:38;;;;;;;8.25;1.42;;;9.10;99.90;;;;;;5003372;28;20124;-88
2023/01/14 00:59:04;;;;;;;11.00;2.08;;;9.10;99.90;;;;;;4990663;28;20033;-88
2023/01/14 01:01:30;;;;;;;7.47;1.70;;;9.10;99.90;;;;;;5014711;28;20040;-87
2023/01/14 01:03:57;;;;;;;7.93;1.40;;;9.10;99.90;;;;;;4987492;28;20017;-86
2023/01/14 01:06:24;;;;;;;7.25;1.55;;;9.10;99.90;;;;;;4995971;28;20087;-88
2023/01/14 01:08:55;;;;;;;8.40;1.40;;;9.10;99.90;;;;;;4960066;28;20651;-88
2023/01/14 01:11:21;;;;;;;7.88;1.30;;;9.00;99.90;;;;;;4988576;28;20120;-85
2023/01/14 01:13:46;;;;;;;5.57;1.20;;;9.00;99.90;;;;;;4985554;28;20239;-87
2023/01/14 01:16:15;;;;;;;7.33;1.57;;;9.00;99.90;;;;;;4981663;28;20026;-86
2023/01/14 01:18:42;;;;;;;8.35;1.45;;;9.00;99.90;;;;;;4968390;28;20069;-87
2023/01/14 01:21:15;;;;;;;6.82;1.30;;;9.00;99.90;;;;;;4976052;28;20029;-87
2023/01/14 01:23:41;;;;;;;6.32;1.27;;;9.00;99.90;;;;;;4977924;28;20037;-87
2023/01/14 01:26:10;;;;;;;8.25;1.65;;;8.90;99.90;;;;;;4972793;28;20061;-85
2023/01/14 01:28:36;;;;;;;5.60;1.10;;;8.90;99.90;;;;;;4988063;28;20065;-87
2023/01/14 01:31:08;;;;;;;9.18;1.30;;;8.90;99.90;;;;;;4980086;28;20794;-86
2023/01/14 01:33:34;;;;;;;10.73;2.35;;;8.90;99.90;;;;;;4960556;28;20226;-87
2023/01/14 01:36:05;;;;;;;11.40;1.50;;;8.90;99.90;;;;;;4960905;28;20021;-86
2023/01/14 01:38:31;;;;;;;9.40;1.60;;;8.90;99.90;;;;;;5000563;28;20406;-88
2023/01/14 01:40:58;;;;;;;11.05;1.65;;;8.90;99.90;;;;;;4984099;28;20242;-86
2023/01/14 01:43:30;;;;;;;10.52;1.65;;;8.90;99.90;;;;;;4977396;28;20046;-87
2023/01/14 01:45:59;;;;;;;10.15;1.80;;;8.90;99.90;;;;;;5007965;28;20036;-88
2023/01/14 01:48:39;;;;;;;7.47;1.40;;;8.90;99.90;;;;;;4963636;28;20029;-89
2023/01/14 01:51:16;;;;;;;8.33;1.77;;;8.90;99.90;;;;;;4979300;28;20018;-86
2023/01/14 01:53:43;;;;;;;9.98;1.55;;;9.00;99.90;;;;;;4983584;28;20038;-86
2023/01/14 01:56:16;;;;;;;7.97;1.63;;;8.90;99.90;;;;;;4961743;28;20026;-86
2023/01/14 01:58:42;;;;;;;8.38;1.40;;;9.00;99.90;;;;;;4965181;28;20017;-85
2023/01/14 02:01:08;;;;;;;5.53;1.30;;;9.00;99.90;;;;;;4988342;28;20026;-88
2023/01/14 02:03:43;;;;;;;5.93;1.40;;;9.00;99.90;;;;;;4958175;28;20044;-87
2023/01/14 02:06:11;;;;;;;6.57;1.20;;;9.00;99.90;;;;;;4979192;28;20041;-86
2023/01/14 02:08:39;;;;;;;7.30;1.40;;;9.00;99.90;;;;;;5011450;28;20057;-86
2023/01/14 02:11:46;;;;;;;7.25;1.40;;;9.00;99.90;;;;;;5005877;28;20551;-86
2023/01/14 02:14:45;;;;;;;5.40;1.20;;;9.00;99.90;;;;;;5000795;28;20048;-86
2023/01/14 02:17:20;;;;;;;6.70;1.70;;;9.10;99.90;;;;;;5000619;28;20036;-87
2023/01/14 02:20:07;;;;;;;4.55;1.00;;;9.10;99.90;;;;;;5001694;28;20223;-88
2023/01/14 02:23:11;;;;;;;7.38;1.10;;;9.10;99.90;;;;;;4989539;28;20032;-86
2023/01/14 02:26:08;;;;;;;3.60;0.90;;;9.10;99.90;;;;;;4985152;28;20021;-87
2023/01/14 02:28:46;;;;;;;8.23;1.67;;;9.20;99.90;;;;;;5013203;28;20025;-87
2023/01/14 02:31:21;;;;;;;4.40;1.00;;;9.20;99.90;;;;;;5016843;28;20032;-86
2023/01/14 02:34:05;;;;;;;6.10;1.02;;;9.20;99.90;;;;;;4998136;28;20166;-88
2023/01/14 02:36:47;;;;;;;7.97;1.48;;;9.20;99.90;;;;;;4996018;28;20119;-87
2023/01/14 02:39:40;;;;;;;7.85;1.20;;;9.30;99.90;;;;;;5017375;28;20028;-88
2023/01/14 02:45:04;;;;;;;10.67;1.30;;;9.30;99.90;;;;;;5032859;28;20601;-87
2023/01/14 02:47:32;;;;;;;5.22;1.20;;;9.30;99.90;;;;;;4995753;28;20029;-87
2023/01/14 02:49:59;;;;;;;6.57;1.10;;;9.30;99.90;;;;;;5003220;28;20036;-86
2023/01/14 02:52:25;;;;;;;6.15;1.48;;;9.30;99.90;;;;;;4990688;28;20097;-86
2023/01/14 02:55:00;;;;;;;5.10;1.23;;;9.30;99.90;;;;;;5010762;28;20037;-87
2023/01/14 02:57:41;;;;;;;5.88;1.15;;;9.40;99.90;;;;;;4998428;28;20017;-87
2023/01/14 03:00:19;;;;;;;6.53;1.25;;;9.40;99.90;;;;;;5009330;28;20025;-87
2023/01/14 03:02:57;;;;;;;6.65;1.20;;;9.40;99.90;;;;;;5002402;28;20029;-85
2023/01/14 03:05:55;;;;;;;5.30;1.40;;;9.40;99.90;;;;;;5016160;28;20037;-87
2023/01/14 03:08:26;;;;;;;4.93;1.20;;;9.40;99.90;;;;;;4990398;28;20041;-87
2023/01/14 03:11:02;;;;;;;5.78;1.20;;;9.40;99.90;;;;;;5006707;28;20127;-88
2023/01/14 03:13:49;;;;;;;5.47;1.13;;;9.40;99.90;;;;;;5014312;28;20043;-87
2023/01/14 03:16:32;;;;;;;3.90;1.00;;;9.50;99.90;;;;;;4995554;28;20141;-87
2023/01/14 03:19:08;;;;;;;5.83;1.00;;;9.40;99.90;;;;;;4986981;28;20516;-87
2023/01/14 03:21:37;;;;;;;5.47;1.10;;;9.50;99.90;;;;;;5009683;28;20092;-86
2023/01/14 03:24:10;;;;;;;4.22;0.98;;;9.50;99.90;;;;;;4976672;28;20074;-87
2023/01/14 03:26:38;;;;;;;6.57;1.52;;;9.50;99.90;;;;;;5025594;28;20033;-85
2023/01/14 03:29:15;;;;;;;7.22;1.05;;;9.40;99.90;;;;;;4983705;28;20032;-86
2023/01/14 03:31:50;;;;;;;4.03;0.80;;;9.40;99.90;;;;;;5008730;28;20122;-87
2023/01/14 03:34:24;;;;;;;4.75;1.27;;;9.40;99.90;;;;;;4998233;28;20035;-88
2023/01/14 03:36:52;;;;;;;4.50;1.05;;;9.40;99.90;;;;;;5024098;28;20143;-87
2023/01/14 03:39:22;;;;;;;6.97;1.00;;;9.40;99.90;;;;;;4977190;28;20017;-87
2023/01/14 03:44:55;;;;;;;4.57;1.10;;;9.40;99.90;;;;;;5019513;28;20024;-88
2023/01/14 03:47:22;;;;;;;6.05;1.48;;;9.30;99.90;;;;;;5013523;28;20036;-87
2023/01/14 03:49:50;;;;;;;5.70;1.00;;;9.30;99.90;;;;;;5016931;28;20025;-87
2023/01/14 03:52:51;;;;;;;4.70;1.02;;;9.30;99.90;;;;;;5005668;28;20532;-87
2023/01/14 03:55:34;;;;;;;4.53;1.02;;;9.30;99.90;;;;;;5008121;28;20139;-87
2023/01/14 03:58:09;;;;;;;8.60;1.80;;;9.30;99.90;;;;;;5013645;28;20064;-88
2023/01/14 04:00:41;;;;;;;5.00;1.10;;;9.30;99.90;;;;;;4980226;28;20021;-86
2023/01/14 04:03:09;;;;;;;6.47;1.30;;;9.30;99.90;;;;;;4997483;28;20384;-87
2023/01/14 04:05:36;;;;;;;5.25;0.90;;;9.20;99.90;;;;;;4988763;28;20128;-87
2023/01/14 04:08:04;;;;;;;8.70;1.48;;;9.20;99.90;;;;;;4999389;28;20111;-87
2023/01/14 04:10:30;;;;;;;4.73;1.00;;;9.20;99.90;;;;;;5022278;28;20033;-88
2023/01/14 04:15:41;;;;;;;4.53;1.02;;;9.20;99.90;;;;;;5017111;28;20028;-87
2023/01/14 04:18:07;;;;;;;5.32;1.20;;;9.20;99.90;;;;;;5014052;28;20054;-87
2023/01/14 04:20:32;;;;;;;4.57;0.87;;;9.20;99.90;;;;;;5003433;28;20496;-87
2023/01/14 04:22:58;;;;;;;4.47;1.05;;;9.20;99.90;;;;;;4998071;28;20212;-87
2023/01/14 04:25:25;;;;;;;7.07;1.00;;;9.20;99.90;;;;;;4999130;28;20020;-87
2023/01/14 04:27:50;;;;;;;4.78;1.17;;;9.20;99.90;;;;;;4993633;28;20040;-88
2023/01/14 04:30:16;;;;;;;5.57;1.10;;;9.20;99.90;;;;;;4997572;28;20017;-87
2023/01/14 04:32:42;;;;;;;6.37;1.30;;;9.20;99.90;;;;;;4986495;28;20029;-87
2023/01/14 04:35:08;;;;;;;7.75;1.58;;;9.20;99.90;;;;;;5018388;28;20092;-87
2023/01/14 04:37:34;;;;;;;3.58;0.95;;;9.20;99.90;;;;;;5011874;28;20029;-86
2023/01/14 04:39:59;;;;;;;5.43;1.10;;;9.20;99.90;;;;;;4992171;28;20051;-87
2023/01/14 04:42:28;;;;;;;6.87;1.00;;;9.20;99.90;;;;;;4976718;28;20017;-87
2023/01/14 04:44:56;;;;;;;3.65;0.90;;;9.20;99.90;;;;;;5011110;28;20123;-87
2023/01/14 04:47:23;;;;;;;4.97;1.23;;;9.20;99.90;;;;;;5001356;28;20028;-87
2023/01/14 04:49:48;;;;;;;2.55;0.73;;;9.20;99.90;;;;;;4992710;28;20215;-86
2023/01/14 04:52:14;;;;;;;4.22;1.15;;;9.20;99.90;;;;;;4984632;28;20064;-87
2023/01/14 04:54:40;;;;;;;6.03;1.33;;;9.20;99.90;;;;;;4993596;28;20033;-87
2023/01/14 04:57:08;;;;;;;5.45;1.08;;;9.30;99.90;;;;;;4989316;28;20048;-88
2023/01/14 04:59:33;;;;;;;7.28;1.60;;;9.30;99.90;;;;;;4988584;28;20040;-87
2023/01/14 05:01:59;;;;;;;4.47;1.03;;;9.30;99.90;;;;;;5007382;28;20274;-87
2023/01/14 05:04:26;;;;;;;5.63;1.35;;;9.30;99.90;;;;;;5001122;28;20482;-86
2023/01/14 05:06:52;;;;;;;3.28;0.90;;;9.30;99.90;;;;;;4987646;28;20646;-87
2023/01/14 05:09:18;;;;;;;4.27;1.10;;;9.30;99.90;;;;;;4994464;28;20044;-87
2023/01/14 05:11:44;;;;;;;6.57;1.02;;;9.30;99.90;;;;;;4971718;28;20025;-88
2023/01/14 05:14:10;;;;;;;3.35;0.90;;;9.40;99.90;;;;;;4992140;28;20030;-88
2023/01/14 05:16:35;;;;;;;6.87;1.73;;;9.40;99.90;;;;;;5004989;28;20036;-87
2023/01/14 05:19:01;;;;;;;5.60;1.10;;;9.40;99.90;;;;;;4981693;28;20033;-87
2023/01/14 05:21:29;;;;;;;7.33;1.83;;;9.40;99.90;;;;;;4996061;28;20128;-87
2023/01/14 05:23:54;;;;;;;8.50;1.42;;;9.40;99.90;;;;;;4998043;28;20040;-86
2023/01/14 05:26:20;;;;;;;4.40;0.98;;;9.50;99.90;;;;;;4984488;28;20724;-87
2023/01/14 05:28:46;;;;;;;4.17;1.10;;;9.50;99.90;;;;;;5008646;28;20472;-87
2023/01/14 05:31:12;;;;;;;7.47;1.90;;;9.50;99.90;;;;;;4992248;28;20613;-88
2023/01/14 05:33:38;;;;;;;6.33;1.10;;;9.50;99.90;;;;;;4995117;28;20028;-87
2023/01/14 05:36:05;;;;;;;5.72;1.20;;;9.50;99.90;;;;;;5007326;28;20156;-87
2023/01/14 05:38:31;;;;;;;7.38;1.10;;;9.50;99.90;;;;;;4980126;28;20461;-86
2023/01/14 05:40:57;;;;;;;5.93;1.10;;;9.50;99.90;;;;;;5002010;28;20389;-86
2023/01/14 05:46:14;;;;;;;5.00;1.10;;;9.50;99.90;;;;;;5029013;28;20543;-87
2023/01/14 05:48:40;;;;;;;7.90;1.30;;;9.50;99.90;;;;;;4987492;28;21560;-86
2023/01/14 05:51:06;;;;;;;7.10;1.43;;;9.50;99.90;;;;;;5013415;28;20029;-87
2023/01/14 05:53:32;;;;;;;6.15;1.52;;;9.50;99.90;;;;;;5012225;28;20665;-85
2023/01/14 05:55:59;;;;;;;6.10;1.50;;;9.50;99.90;;;;;;5019616;28;20025;-87
2023/01/14 05:58:25;;;;;;;4.82;1.50;;;9.50;99.90;;;;;;4987774;28;20594;-87
2023/01/14 06:06:28;;;;;;;5.70;1.63;;;9.40;99.90;;;;;;5011190;28;20552;-87
2023/01/14 06:08:56;;;;;;;7.43;1.67;;;9.40;99.90;;;;;;4998405;28;20060;-86
2023/01/14 06:11:24;;;;;;;3.85;1.25;;;9.30;99.90;;;;;;5007577;28;20035;-87
2023/01/14 06:13:51;;;;;;;5.43;1.10;;;9.30;99.90;;;;;;4972368;28;20032;-87
2023/01/14 06:16:18;;;;;;;7.85;1.45;;;9.30;99.90;;;;;;5019465;28;20032;-86
2023/01/14 06:18:45;;;;;;;4.43;1.20;;;9.30;99.90;;;;;;5016601;28;20029;-86
2023/01/14 06:21:13;;;;;;;4.22;1.20;;;9.30;99.90;;;;;;4995975;28;20024;-88
2023/01/14 06:23:39;;;;;;;4.82;1.05;;;9.30;99.90;;;;;;4987742;28;20017;-87
2023/01/14 06:26:09;;;;;;;3.00;0.93;;;9.30;99.90;;;;;;4982949;28;20145;-87
2023/01/14 06:28:35;;;;;;;4.10;1.10;;;9.30;99.90;;;;;;5012545;28;20037;-87
2023/01/14 06:31:01;;;;;;;4.80;1.60;;;9.30;99.90;;;;;;4994734;28;20112;-87
2023/01/14 06:33:27;;;;;;;5.37;1.37;;;9.30;99.90;;;;;;5013503;28;20266;-87
2023/01/14 06:35:55;;;;;;;4.68;1.50;;;9.30;99.90;;;;;;4988974;28;20055;-87
2023/01/14 06:38:21;;;;;;;2.88;1.00;;;9.30;99.90;;;;;;4991814;28;20312;-86
2023/01/14 06:40:46;;;;;;;5.97;1.10;;;9.30;99.90;;;;;;5023794;28;20044;-87
2023/01/14 06:43:12;;;;;;;4.22;1.20;;;9.30;99.90;;;;;;5027097;28;20393;-87
2023/01/14 06:45:38;;;;;;;4.57;1.25;;;9.30;99.90;;;;;;4992912;28;20250;-87
2023/01/14 06:48:04;;;;;;;5.57;1.20;;;9.40;99.90;;;;;;5010622;28;20528;-86
2023/01/14 06:50:30;;;;;;;2.63;1.40;;;9.40;99.90;;;;;;5000013;28;20606;-87
2023/01/14 06:53:00;;;;;;;4.47;1.37;;;9.40;99.90;;;;;;4999643;28;20050;-87
2023/01/14 06:55:26;;;;;;;5.18;1.27;;;9.40;99.90;;;;;;4999307;28;20729;-86
2023/01/14 06:57:51;;;;;;;3.85;1.50;;;9.40;99.90;;;;;;4990935;28;20027;-87
2023/01/14 07:00:18;;;;;;;3.10;1.20;;;9.50;99.90;;;;;;4969288;28;21224;-87
2023/01/14 07:02:43;;;;;;;4.85;1.40;;;9.50;99.90;;;;;;5013977;28;20108;-86
2023/01/14 07:05:09;;;;;;;4.65;1.30;;;9.50;99.90;;;;;;5006593;28;20052;-87
2023/01/14 07:07:35;;;;;;;5.27;1.30;;;9.50;99.90;;;;;;4994956;28;20029;-87
2023/01/14 07:10:01;;;;;;;4.25;1.45;;;9.60;99.90;;;;;;4992637;28;20040;-86
2023/01/14 07:12:27;;;;;;;4.33;1.60;;;9.60;99.90;;;;;;4962078;28;20303;-88
2023/01/14 07:14:53;;;;;;;3.38;1.10;;;9.60;99.90;;;;;;5006400;28;20021;-87
2023/01/14 07:17:19;;;;;;;4.88;1.23;;;9.60;99.90;;;;;;4960201;28;20150;-87
2023/01/14 07:19:45;;;;;;;3.13;1.10;;;9.60;99.90;;;;;;4983232;28;20060;-86
2023/01/14 07:22:10;;;;;;;2.75;0.90;;;9.60;99.90;;;;;;4995904;28;20602;-87
2023/01/14 07:24:37;;;;;;;2.23;1.00;;;9.70;99.90;;;;;;4985043;28;20052;-89
2023/01/14 07:27:04;;;;;;;3.53;1.05;;;9.70;99.90;;;;;;4988805;28;20313;-87
2023/01/14 07:29:30;;;;;;;2.03;0.90;;;9.70;99.90;;;;;;4989702;28;20301;-87
2023/01/14 07:31:56;;;;;;;3.00;0.90;;;9.70;99.90;;;;;;5005677;28;20439;-88
2023/01/14 07:34:22;;;;;;;2.15;1.10;;;9.80;99.90;;;;;;5005528;28;20579;-87
2023/01/14 07:36:48;;;;;;;4.75;1.60;;;9.80;99.90;;;;;;4996924;28;20370;-87
2023/01/14 07:39:13;;;;;;;3.00;0.90;;;9.80;99.90;;;;;;4985246;28;20171;-87
2023/01/14 07:41:40;;;;;;;2.85;0.90;;;9.90;99.90;;;;;;4976764;28;21429;-87
2023/01/14 07:44:06;;;;;;;2.67;1.10;;;9.90;99.90;;;;;;5022787;28;20032;-86
2023/01/14 07:46:32;;;;;;;3.72;1.00;;;9.90;99.90;;;;;;5028855;28;20348;-88
2023/01/14 07:48:58;;;;;;;2.58;0.82;;;10.00;99.90;;;;;;4993219;28;20036;-88
2023/01/14 07:51:24;;;;;;;3.67;1.08;;;10.00;99.90;;;;;;4998211;28;20481;-87
2023/01/14 07:53:50;;;;;;;2.53;1.00;;;10.00;99.90;;;;;;5024688;28;20032;-88
2023/01/14 07:56:16;;;;;;;1.58;0.80;;;10.10;99.90;;;;;;4995096;28;20029;-85
2023/01/14 07:58:42;;;;;;;3.00;1.00;;;10.10;99.90;;;;;;4988358;28;20041;-88
2023/01/14 08:01:09;;;;;;;3.22;0.90;;;10.20;99.90;;;;;;4997774;28;20017;-88
2023/01/14 08:03:36;;;;;;;4.47;1.00;;;10.20;99.90;;;;;;4980608;28;20064;-87
2023/01/14 08:06:06;;;;;;;2.55;1.00;;;10.30;99.90;;;;;;4985744;28;20045;-86
2023/01/14 08:08:33;;;;;;;3.25;1.13;;;10.30;99.90;;;;;;4998138;28;20446;-88
2023/01/14 08:11:03;;;;;;;3.45;1.05;;;10.30;99.90;;;;;;4994469;28;20029;-89
2023/01/14 08:13:30;;;;;;;4.10;1.00;;;10.40;99.90;;;;;;4990615;28;20227;-87
2023/01/14 08:16:00;;;;;;;2.10;0.90;;;10.40;99.90;;;;;;4983433;28;20028;-88
2023/01/14 08:18:27;;;;;;;3.70;1.00;;;10.40;99.90;;;;;;5010585;28;20399;-87
2023/01/14 08:20:57;;;;;;;4.85;1.17;;;10.50;99.90;;;;;;4988167;28;20063;-86
2023/01/14 08:23:23;;;;;;;6.72;1.50;;;10.50;99.90;;;;;;4990852;28;20031;-86
2023/01/14 08:25:49;;;;;;;4.10;1.10;;;10.40;99.90;;;;;;5012571;28;20484;-89
2023/01/14 08:28:15;;;;;;;5.55;1.35;;;10.50;99.90;;;;;;4994095;28;20671;-87
2023/01/14 08:30:41;;;;;;;3.33;0.90;;;10.50;99.90;;;;;;4979111;28;20684;-91
2023/01/14 08:33:07;;;;;;;6.03;1.63;;;10.50;99.90;;;;;;5005544;28;20504;-87
2023/01/14 08:35:37;;;;;;;2.90;1.00;;;10.50;99.90;;;;;;4970738;28;20017;-90
2023/01/14 08:38:03;;;;;;;5.30;0.98;;;10.50;99.90;;;;;;4998455;28;20029;-89
2023/01/14 08:40:29;;;;;;;2.37;1.00;;;10.50;99.90;;;;;;5003313;28;20296;-88
2023/01/14 08:42:55;;;;;;;4.72;1.23;;;10.50;99.90;;;;;;4997418;28;20481;-87
2023/01/14 08:45:20;;;;;;;2.53;1.08;;;10.60;99.90;;;;;;5021163;28;20391;-89
2023/01/14 08:47:46;;;;;;;3.37;1.10;;;10.60;99.90;;;;;;4978230;28;20043;-89
2023/01/14 08:50:12;;;;;;;6.50;1.57;;;10.60;99.90;;;;;;4982472;28;20025;-88
2023/01/14 08:52:37;;;;;;;4.53;1.35;;;10.60;99.90;;;;;;4970569;28;20123;-89
2023/01/14 08:55:04;;;;;;;4.93;1.17;;;10.60;99.90;;;;;;4987801;28;20024;-89
2023/01/14 08:57:30;;;;;;;6.03;1.67;;;10.60;99.90;;;;;;4999170;28;20127;-87
2023/01/14 08:59:55;;;;;;;4.38;1.42;;;10.70;99.90;;;;;;5003646;28;20021;-86
2023/01/14 09:02:21;;;;;;;7.40;1.53;;;10.70;99.90;;;;;;4984529;28;20199;-87
2023/01/14 09:04:47;;;;;;;3.22;1.23;;;10.70;99.90;;;;;;5010782;28;20012;-87
2023/01/14 09:18:10;;;;;;;3.00;1.10;;;10.70;99.90;;;;;;5005498;28;20357;-88
2023/01/14 09:20:38;;;;;;;3.17;1.20;;;10.70;99.90;;;;;;5011077;28;20021;-87
2023/01/14 09:23:06;;;;;;;4.68;1.23;;;10.80;99.90;;;;;;4974674;28;20017;-86
2023/01/14 09:25:32;;;;;;;3.30;1.08;;;10.80;99.90;;;;;;4983241;28;20103;-88
2023/01/14 09:27:58;;;;;;;5.07;1.20;;;10.80;99.90;;;;;;4989095;28;20104;-87
2023/01/14 09:30:24;;;;;;;4.00;1.10;;;10.80;99.90;;;;;;4976853;28;20222;-87
2023/01/14 09:32:50;;;;;;;3.03;1.00;;;10.90;99.90;;;;;;4994170;28;20025;-87
2023/01/14 09:35:16;;;;;;;2.58;0.75;;;10.80;99.90;;;;;;5005150;28;20233;-88
2023/01/14 09:37:42;;;;;;;4.53;1.00;;;10.80;99.90;;;;;;4981618;28;20041;-87
2023/01/14 09:40:09;;;;;;;3.22;1.20;;;10.90;99.90;;;;;;4976012;28;20029;-89
2023/01/14 09:42:40;;;;;;;2.78;0.88;;;10.90;99.90;;;;;;5007742;28;20017;-87
2023/01/14 09:45:18;;;;;;;5.07;1.10;;;10.90;99.90;;;;;;4992294;28;20034;-89
2023/01/14 09:47:45;;;;;;;4.50;1.15;;;10.90;99.90;;;;;;5026859;28;20021;-88
2023/01/14 09:50:16;;;;;;;2.87;0.80;;;11.00;99.90;;;;;;4995361;28;20140;-88
2023/01/14 09:53:01;;;;;;;3.10;0.77;;;11.00;99.90;;;;;;4968129;28;20186;-86
2023/01/14 09:55:48;;;;;;;2.58;0.80;;;11.00;99.90;;;;;;5005261;28;20028;-88
2023/01/14 09:58:30;;;;;;;2.38;0.80;;;11.00;99.90;;;;;;4983669;28;20124;-88
2023/01/14 10:00:56;;;;;;;2.22;0.80;;;11.00;99.90;;;;;;5001399;28;20033;-87
2023/01/14 10:04:06;;;;;;;2.73;0.80;;;11.10;99.90;;;;;;4994823;28;20124;-87
2023/01/14 10:06:33;;;;;;;1.92;0.70;;;11.10;99.90;;;;;;5010669;28;20058;-88
2023/01/14 10:09:13;;;;;;;2.22;0.70;;;11.10;99.90;;;;;;4968502;28;20021;-88
2023/01/14 10:11:44;;;;;;;2.55;0.90;;;11.10;99.90;;;;;;5011111;28;20036;-88
2023/01/14 10:14:15;;;;;;;2.03;0.75;;;11.10;99.90;;;;;;5019005;28;20048;-88
2023/01/14 10:16:44;;;;;;;1.83;0.67;;;11.20;99.90;;;;;;4998165;28;20484;-89
2023/01/14 10:19:23;;;;;;;2.08;0.80;;;11.20;99.90;;;;;;4966935;28;20330;-87
2023/01/14 10:22:12;;;;;;;2.88;0.80;;;11.20;99.90;;;;;;5001672;28;20025;-88
2023/01/14 10:24:41;;;;;;;1.42;0.70;;;11.20;99.90;;;;;;4990380;28;20119;-88
2023/01/14 10:27:28;;;;;;;1.08;0.70;;;11.30;99.90;;;;;;4978324;28;20376;-86
2023/01/14 10:29:57;;;;;;;2.57;0.80;;;11.30;99.90;;;;;;5017819;28;20579;-88
2023/01/14 10:32:25;;;;;;;2.20;1.00;;;11.30;99.90;;;;;;4975314;28;20143;-88
2023/01/14 10:34:54;;;;;;;3.45;1.30;;;11.30;99.90;;;;;;4991667;28;21076;-88
2023/01/14 10:37:20;;;;;;;3.15;1.50;;;11.30;99.90;;;;;;5000483;28;20595;-88
2023/01/14 10:39:52;;;;;;;2.73;1.67;;;11.40;99.90;;;;;;4962255;28;20025;-88
2023/01/14 10:42:26;;;;;;;4.78;1.45;;;11.40;99.90;;;;;;5005475;28;20020;-87
2023/01/14 10:44:53;;;;;;;1.48;1.05;;;11.40;99.90;;;;;;4988632;28;20135;-87
2023/01/14 10:47:20;;;;;;;2.50;0.90;;;11.40;99.90;;;;;;4991914;28;20013;-88
2023/01/14 10:49:59;;;;;;;3.33;0.90;;;11.40;99.90;;;;;;5007669;28;20449;-87
2023/01/14 10:52:28;;;;;;;2.20;0.60;;;11.50;99.90;;;;;;5007936;28;20431;-88
2023/01/14 10:55:15;;;;;;;3.85;0.90;;;11.50;99.90;;;;;;4991370;28;20018;-88
2023/01/14 10:57:48;;;;;;;4.65;1.10;;;11.50;99.90;;;;;;4978828;28;20033;-87
2023/01/14 11:00:26;;;;;;;1.98;0.80;;;11.50;99.90;;;;;;5001885;28;20029;-87
2023/01/14 11:02:53;;;;;;;2.33;0.70;;;11.50;99.90;;;;;;5006617;28;20036;-88
2023/01/14 11:05:26;;;;;;;2.90;0.98;;;11.50;99.90;;;;;;4971694;28;20024;-88
2023/01/14 11:07:54;;;;;;;2.67;0.90;;;11.50;99.90;;;;;;4986745;28;20026;-87
2023/01/14 11:10:23;;;;;;;1.48;0.98;;;11.50;99.90;;;;;;4990448;28;20144;-89
2023/01/14 11:12:51;;;;;;;1.63;0.90;;;11.50;99.90;;;;;;5001892;28;20021;-89
2023/01/14 11:15:37;;;;;;;1.50;0.90;;;11.60;99.90;;;;;;4984768;28;20543;-88
2023/01/14 11:18:33;;;;;;;1.92;0.93;;;11.60;99.90;;;;;;5009586;28;20032;-87
2023/01/14 11:21:15;;;;;;;1.48;0.77;;;11.60;99.90;;;;;;4990886;28;20643;-88
2023/01/14 11:23:44;;;;;;;2.38;0.90;;;11.60;99.90;;;;;;5000172;28;20550;-88
2023/01/14 11:26:36;;;;;;;1.45;0.60;;;11.60;99.90;;;;;;4974446;28;20456;-88
2023/01/14 11:29:15;;;;;;;2.30;0.80;;;11.60;99.90;;;;;;4991289;28;20081;-88
2023/01/14 11:31:43;;;;;;;1.75;0.65;;;11.70;99.90;;;;;;5003702;28;20310;-87
2023/01/14 11:34:26;;;;;;;1.35;0.75;;;11.70;99.90;;;;;;4996268;28;20048;-87
2023/01/14 11:37:15;;;;;;;1.15;0.70;;;11.70;99.90;;;;;;5012202;28;20087;-88
2023/01/14 11:39:51;;;;;;;3.25;0.90;;;11.70;99.90;;;;;;4992461;28;20651;-87
2023/01/14 11:42:26;;;;;;;1.93;0.87;;;11.70;99.90;;;;;;4984624;28;20023;-87
2023/01/14 11:45:10;;;;;;;1.23;0.80;;;11.80;99.90;;;;;;5009882;28;20021;-88
2023/01/14 11:47:51;;;;;;;1.10;0.80;;;11.80;99.90;;;;;;5022518;28;20239;-87
2023/01/14 11:50:20;;;;;;;1.63;0.82;;;11.80;99.90;;;;;;4979796;28;20029;-86
2023/01/14 11:53:16;;;;;;;2.08;0.90;;;11.80;99.90;;;;;;4982858;28;21470;-87
2023/01/14 11:55:44;;;;;;;1.43;0.70;;;11.80;99.90;;;;;;4969357;28;20087;-87
2023/01/14 11:58:25;;;;;;;1.33;0.80;;;11.90;99.90;;;;;;4993532;28;20092;-87
2023/01/14 12:01:17;;;;;;;2.22;0.80;;;11.90;99.90;;;;;;5005586;28;20025;-87
2023/01/14 12:04:00;;;;;;;2.45;1.20;;;11.90;99.90;;;;;;4985585;28;20189;-87
2023/01/14 12:06:49;;;;;;;1.60;0.90;;;11.90;99.90;;;;;;4993282;28;20045;-88
2023/01/14 12:09:26;;;;;;;1.53;0.80;;;11.90;99.90;;;;;;4984180;28;20052;-87
2023/01/14 12:12:06;;;;;;;1.70;0.70;;;12.00;99.90;;;;;;4991915;28;20508;-89
2023/01/14 12:17:39;;;;;;;0.88;0.80;;;12.00;99.90;;;;;;5011620;28;20124;-89
2023/01/14 12:20:06;;;;;;;1.35;0.70;;;12.00;99.90;;;;;;5013611;28;20025;-86
2023/01/14 12:22:49;;;;;;;1.23;0.70;;;12.10;99.90;;;;;;4991245;28;20017;-87
2023/01/14 12:25:23;;;;;;;1.00;0.70;;;12.10;99.90;;;;;;5003682;28;20049;-89
2023/01/14 12:28:08;;;;;;;0.70;0.60;;;12.10;99.90;;;;;;4985324;28;20025;-89
2023/01/14 12:30:55;;;;;;;1.02;0.60;;;12.10;99.90;;;;;;4994927;28;20025;-87
2023/01/14 12:33:52;;;;;;;1.23;0.60;;;12.20;99.90;;;;;;5013192;28;20507;-88
2023/01/14 12:36:22;;;;;;;1.07;0.50;;;12.20;99.90;;;;;;4991919;28;20029;-89
2023/01/14 12:47:47;;;;;;;2.30;1.00;;;12.30;99.90;;;;;;5004407;28;20195;-88
2023/01/14 12:50:15;;;;;;;1.93;0.80;;;12.30;99.90;;;;;;5009587;28;20037;-87
2023/01/14 12:52:51;;;;;;;1.45;0.80;;;12.30;99.90;;;;;;4991499;28;20046;-88
2023/01/14 12:55:38;;;;;;;1.40;0.90;;;12.40;99.90;;;;;;4988832;28;20021;-90
2023/01/14 12:58:06;;;;;;;2.13;1.20;;;12.40;99.90;;;;;;4989765;28;20021;-89
2023/01/14 13:00:35;;;;;;;2.30;1.00;;;12.40;99.90;;;;;;4971380;28;20604;-88
2023/01/14 13:03:07;;;;;;;2.80;1.30;;;12.40;99.90;;;;;;5009193;28;20048;-87
2023/01/14 13:05:40;;;;;;;2.63;1.30;;;12.40;99.90;;;;;;4989170;28;20025;-88
2023/01/14 13:08:18;;;;;;;2.75;1.45;;;12.40;99.90;;;;;;4973594;28;20132;-87
2023/01/14 13:10:45;;;;;;;2.15;1.05;;;12.50;99.90;;;;;;4966961;28;21307;-88
2023/01/14 13:13:22;;;;;;;3.22;1.27;;;12.50;99.90;;;;;;4996854;28;20052;-92
2023/01/14 13:15:48;;;;;;;3.87;1.33;;;12.50;99.90;;;;;;4972380;28;20033;-87
2023/01/14 13:18:33;;;;;;;2.40;1.10;;;12.60;99.90;;;;;;4989825;28;20020;-86
2023/01/14 13:20:59;;;;;;;2.22;1.30;;;12.60;99.90;;;;;;4996063;28;20462;-89
2023/01/14 13:23:48;;;;;;;2.13;1.10;;;12.60;99.90;;;;;;4976871;28;20048;-88
2023/01/14 13:26:17;;;;;;;3.15;1.20;;;12.60;99.90;;;;;;4989388;28;20033;-88
2023/01/14 13:29:20;;;;;;;2.07;1.20;;;12.70;99.90;;;;;;4992438;28;20025;-88
2023/01/14 13:31:49;;;;;;;2.45;1.10;;;12.70;99.90;;;;;;4929471;28;20065;-90
2023/01/14 13:34:35;;;;;;;2.67;1.20;;;12.70;99.90;;;;;;4980082;28;20098;-89
2023/01/14 13:37:04;;;;;;;2.42;1.20;;;12.80;99.90;;;;;;5025433;28;20052;-88
2023/01/14 13:39:31;;;;;;;1.70;1.00;;;12.70;99.90;;;;;;5000046;28;20314;-88
2023/01/14 13:42:00;;;;;;;2.83;0.90;;;12.80;99.90;;;;;;5023890;28;20029;-87
2023/01/14 13:44:31;;;;;;;2.80;0.90;;;12.80;99.90;;;;;;5014486;28;20678;-88
2023/01/14 13:47:02;;;;;;;1.63;0.90;;;12.80;99.90;;;;;;4973467;28;20025;-88
2023/01/14 13:49:51;;;;;;;2.95;1.00;;;12.80;99.90;;;;;;4980787;28;20438;-88
2023/01/14 13:52:24;;;;;;;3.05;1.20;;;12.80;99.90;;;;;;4993722;28;20652;-88